Time;durP1;ratioP1;P1;durP2;ratioP2;P2;SDS_P1;SDS_P2;PMS_P1;PMS_P2;Temp;Humidity;BMP_temperature;BMP_pressure;BME280_temperature;BME280_humidity;BME280_pressure;Samples;Min_cycle;Max_cycle;Signal;HPM_P1;HPM_P2
2022/02/12 00:01:14;;;;;;;4.43;2.15;;;1.90;90.60;;;;;;2116238;28;20043;-93
2022/02/12 00:02:33;;;;;;;4.85;1.98;;;1.90;90.90;;;;;;2112421;28;20345;-93
2022/02/12 00:03:52;;;;;;;6.32;2.15;;;1.90;90.60;;;;;;2102790;28;20047;-92
2022/02/12 00:05:11;;;;;;;4.25;1.90;;;1.90;90.70;;;;;;2103094;28;20021;-93
2022/02/12 00:06:31;;;;;;;5.55;2.10;;;1.90;90.70;;;;;;2103836;28;20040;-94
2022/02/12 00:07:55;;;;;;;5.47;2.00;;;2.00;90.80;;;;;;2115213;28;20541;-94
2022/02/12 00:09:14;;;;;;;5.43;1.88;;;1.90;90.70;;;;;;2106901;28;20032;-94
2022/02/12 00:10:33;;;;;;;3.97;2.03;;;1.90;90.70;;;;;;2104898;28;20405;-95
2022/02/12 00:11:53;;;;;;;4.90;2.08;;;1.90;90.80;;;;;;2113466;27;20019;-94
2022/02/12 00:13:12;;;;;;;5.43;2.10;;;1.90;90.80;;;;;;2101118;28;20040;-93
2022/02/12 00:14:32;;;;;;;5.28;2.00;;;1.90;91.10;;;;;;2109886;28;20420;-95
2022/02/12 00:15:51;;;;;;;6.35;2.42;;;1.90;90.80;;;;;;2107790;28;20083;-94
2022/02/12 00:17:10;;;;;;;4.75;2.15;;;1.90;90.90;;;;;;2102027;28;20072;-94
2022/02/12 00:18:29;;;;;;;5.72;2.22;;;1.90;90.90;;;;;;2096747;28;20044;-93
2022/02/12 00:19:49;;;;;;;7.53;2.20;;;1.90;90.90;;;;;;2092108;28;20040;-94
2022/02/12 00:21:08;;;;;;;8.27;2.75;;;1.90;90.90;;;;;;2100637;28;20075;-94
2022/02/12 00:22:28;;;;;;;5.68;2.17;;;1.90;90.90;;;;;;2096452;28;20044;-95
2022/02/12 00:23:48;;;;;;;5.13;2.13;;;1.90;90.90;;;;;;2089337;28;20415;-95
2022/02/12 00:25:08;;;;;;;5.28;2.25;;;1.90;90.90;;;;;;2086165;28;20048;-95
2022/02/12 00:26:27;;;;;;;5.57;2.42;;;1.90;91.00;;;;;;2097754;28;20041;-95
2022/02/12 00:27:46;;;;;;;7.55;2.40;;;1.90;91.00;;;;;;2088063;28;20803;-96
2022/02/12 00:29:07;;;;;;;5.70;2.55;;;1.90;91.00;;;;;;2096338;28;20040;-95
2022/02/12 00:30:28;;;;;;;;;;;1.90;91.00;;;;;;2107031;28;20035;-94
2022/02/12 00:31:47;;;;;;;5.72;2.28;;;1.90;91.00;;;;;;2100706;28;19912;-95
2022/02/12 00:33:07;;;;;;;7.50;2.53;;;1.90;91.00;;;;;;2097771;28;20048;-95
2022/02/12 00:34:27;;;;;;;;;;;1.80;91.00;;;;;;2106011;28;20039;-96
2022/02/12 00:35:46;;;;;;;5.55;2.03;;;1.80;91.00;;;;;;2104398;28;19912;-95
2022/02/12 00:37:05;;;;;;;5.72;2.30;;;1.80;91.00;;;;;;2092687;28;20040;-96
2022/02/12 00:38:25;;;;;;;5.43;2.53;;;1.80;91.00;;;;;;2110732;27;20043;-95
2022/02/12 00:39:44;;;;;;;4.53;2.00;;;1.80;91.00;;;;;;2104071;28;20052;-95
2022/02/12 00:41:04;;;;;;;6.35;2.38;;;1.80;91.10;;;;;;2106063;28;20131;-95
2022/02/12 00:42:24;;;;;;;5.80;2.50;;;1.80;91.10;;;;;;2107351;28;20073;-95
2022/02/12 00:43:43;;;;;;;5.65;2.50;;;1.70;91.10;;;;;;2108783;28;20925;-94
2022/02/12 00:45:02;;;;;;;4.90;2.50;;;1.70;91.20;;;;;;2103567;28;20051;-95
2022/02/12 00:46:22;;;;;;;6.45;2.28;;;1.70;91.20;;;;;;2092997;28;20089;-95
2022/02/12 00:47:41;;;;;;;5.47;2.55;;;1.70;91.20;;;;;;2101827;28;20048;-95
2022/02/12 00:49:03;;;;;;;5.72;2.42;;;1.70;91.20;;;;;;2096999;28;20127;-95
2022/02/12 00:50:22;;;;;;;5.28;2.55;;;1.70;91.20;;;;;;2094539;28;20039;-95
2022/02/12 00:51:41;;;;;;;7.22;2.50;;;1.70;91.30;;;;;;2102192;28;20040;-94
2022/02/12 00:53:00;;;;;;;6.28;3.00;;;1.70;91.30;;;;;;2097595;28;20040;-94
2022/02/12 00:54:20;;;;;;;6.18;2.70;;;1.70;91.30;;;;;;2109350;28;20059;-94
2022/02/12 00:55:40;;;;;;;6.93;2.75;;;1.70;91.30;;;;;;2100229;28;20036;-93
2022/02/12 00:57:00;;;;;;;6.30;2.40;;;1.70;91.40;;;;;;2098505;28;20052;-95
2022/02/12 00:58:20;;;;;;;8.52;2.80;;;1.60;91.40;;;;;;2102857;28;20044;-93
2022/02/12 00:59:39;;;;;;;6.28;2.40;;;1.60;91.40;;;;;;2109863;28;20032;-94
2022/02/12 01:00:58;;;;;;;6.70;2.70;;;1.60;91.40;;;;;;2106410;28;20040;-94
2022/02/12 01:02:17;;;;;;;6.45;2.67;;;1.60;91.50;;;;;;2095118;28;20083;-95
2022/02/12 01:03:37;;;;;;;8.65;2.92;;;1.60;91.50;;;;;;2101573;27;20064;-95
2022/02/12 01:04:56;;;;;;;6.95;2.47;;;1.60;91.50;;;;;;2100183;28;20044;-95
2022/02/12 01:06:16;;;;;;;6.10;2.38;;;1.60;91.50;;;;;;2107259;28;20035;-95
2022/02/12 01:07:35;;;;;;;5.63;2.13;;;1.60;91.50;;;;;;2103085;28;20056;-95
2022/02/12 01:08:54;;;;;;;5.53;2.35;;;1.60;91.50;;;;;;2097625;28;20047;-95
2022/02/12 01:10:13;;;;;;;7.68;3.00;;;1.60;91.50;;;;;;2099025;28;20036;-95
2022/02/12 01:11:33;;;;;;;7.47;3.05;;;1.60;91.60;;;;;;2098334;28;20040;-95
2022/02/12 01:12:53;;;;;;;6.95;2.55;;;1.50;91.60;;;;;;2106917;27;20122;-96
2022/02/12 01:14:12;;;;;;;5.63;2.47;;;1.50;91.60;;;;;;2105998;28;20170;-96
2022/02/12 01:15:34;;;;;;;6.65;2.47;;;1.60;91.60;;;;;;2098490;28;20064;-95
2022/02/12 01:16:54;;;;;;;5.95;2.28;;;1.50;91.60;;;;;;2102918;28;20036;-95
2022/02/12 01:18:13;;;;;;;6.63;2.65;;;1.60;91.70;;;;;;2094639;28;20045;-95
2022/02/12 01:19:33;;;;;;;6.20;2.58;;;1.60;91.90;;;;;;2099303;28;20111;-96
2022/02/12 01:20:52;;;;;;;4.70;2.60;;;1.60;91.70;;;;;;2101833;28;20040;-95
2022/02/12 01:22:12;;;;;;;5.50;2.63;;;1.60;91.70;;;;;;2101157;28;20039;-95
2022/02/12 01:23:32;;;;;;;;;;;1.60;91.70;;;;;;2091177;28;20148;-95
2022/02/12 01:24:52;;;;;;;6.22;2.35;;;1.60;91.60;;;;;;2097436;28;19916;-96
2022/02/12 01:26:11;;;;;;;6.85;2.30;;;1.60;91.60;;;;;;2100422;28;20037;-95
2022/02/12 01:27:31;;;;;;;6.05;2.28;;;1.50;91.60;;;;;;2098049;28;20059;-95
2022/02/12 01:28:50;;;;;;;6.20;2.47;;;1.60;91.60;;;;;;2089687;28;20794;-96
2022/02/12 01:30:10;;;;;;;5.60;2.08;;;1.50;91.60;;;;;;2086960;28;20052;-96
2022/02/12 01:31:29;;;;;;;4.22;2.25;;;1.50;91.70;;;;;;2089720;28;20495;-95
2022/02/12 01:32:48;;;;;;;6.13;2.22;;;1.60;91.70;;;;;;2106055;28;20043;-95
2022/02/12 01:34:08;;;;;;;5.25;2.50;;;1.50;91.70;;;;;;2097090;28;20036;-94
2022/02/12 01:35:27;;;;;;;5.40;2.30;;;1.50;91.70;;;;;;2097778;28;20044;-96
2022/02/12 01:36:46;;;;;;;6.50;2.40;;;1.60;91.80;;;;;;2091025;28;20041;-96
2022/02/12 01:38:05;;;;;;;7.82;2.22;;;1.50;91.70;;;;;;2091030;28;20053;-96
2022/02/12 01:39:25;;;;;;;5.65;2.30;;;1.60;91.80;;;;;;2105210;27;20036;-94
2022/02/12 01:40:46;;;;;;;6.75;2.78;;;1.50;91.70;;;;;;2097690;28;20044;-95
2022/02/12 01:42:05;;;;;;;4.63;2.08;;;1.60;91.80;;;;;;2094090;28;20041;-94
2022/02/12 01:43:24;;;;;;;5.07;2.22;;;1.60;91.80;;;;;;2095959;28;20102;-94
2022/02/12 01:44:44;;;;;;;5.20;2.25;;;1.50;91.80;;;;;;2085891;28;20029;-94
2022/02/12 01:46:03;;;;;;;6.35;2.45;;;1.50;91.80;;;;;;2099346;28;20052;-94
2022/02/12 01:47:23;;;;;;;4.93;2.10;;;1.50;91.80;;;;;;2100443;28;20032;-94
2022/02/12 01:48:44;;;;;;;6.57;2.65;;;1.50;91.90;;;;;;2096017;28;20048;-93
2022/02/12 01:50:04;;;;;;;6.53;2.30;;;1.50;91.80;;;;;;2095992;28;20044;-96
2022/02/12 01:51:23;;;;;;;6.40;2.60;;;1.50;91.90;;;;;;2097450;28;20041;-95
2022/02/12 01:52:44;;;;;;;5.13;2.25;;;1.50;92.10;;;;;;2095071;28;20824;-94
2022/02/12 01:54:03;;;;;;;5.00;2.28;;;1.50;91.90;;;;;;2100770;28;20135;-95
2022/02/12 01:55:24;;;;;;;7.63;2.10;;;1.50;91.90;;;;;;2109468;27;20063;-96
2022/02/12 01:56:45;;;;;;;6.05;2.22;;;1.50;91.90;;;;;;2103611;28;20063;-96
2022/02/12 01:58:09;;;;;;;7.00;2.15;;;1.40;91.90;;;;;;2105400;28;20041;-96
2022/02/12 01:59:29;;;;;;;5.63;2.50;;;1.40;91.90;;;;;;2099446;28;20037;-96
2022/02/12 02:00:49;;;;;;;5.82;2.47;;;1.40;91.90;;;;;;2102222;28;20055;-96
2022/02/12 02:02:09;;;;;;;6.65;2.60;;;1.40;92.00;;;;;;2105836;28;20048;-95
2022/02/12 02:03:28;;;;;;;6.45;2.55;;;1.30;91.90;;;;;;2100443;28;21342;-96
2022/02/12 02:04:48;;;;;;;7.15;2.50;;;1.40;92.00;;;;;;2100009;28;20049;-95
2022/02/12 02:06:08;;;;;;;8.52;2.42;;;1.30;92.00;;;;;;2094893;28;20052;-96
2022/02/12 02:07:27;;;;;;;6.35;2.40;;;1.30;92.00;;;;;;2102560;28;20044;-96
2022/02/12 02:08:47;;;;;;;5.95;2.70;;;1.30;92.00;;;;;;2100893;28;20036;-96
2022/02/12 02:10:08;;;;;;;5.03;2.25;;;1.30;92.00;;;;;;2098195;28;20044;-96
2022/02/12 02:11:28;;;;;;;7.32;2.55;;;1.30;92.00;;;;;;2097438;28;20036;-95
2022/02/12 02:12:47;;;;;;;7.88;2.38;;;1.30;92.00;;;;;;2095991;28;20033;-96
2022/02/12 02:14:07;;;;;;;6.38;2.50;;;1.20;92.00;;;;;;2099947;28;20040;-96
2022/02/12 02:15:26;;;;;;;5.38;2.53;;;1.20;92.10;;;;;;2093002;28;20044;-95
2022/02/12 02:16:46;;;;;;;6.07;2.42;;;1.30;92.10;;;;;;2101077;28;20136;-96
2022/02/12 02:18:06;;;;;;;7.47;2.35;;;1.30;92.10;;;;;;2105988;28;20040;-95
2022/02/12 02:19:25;;;;;;;5.75;2.40;;;1.20;92.10;;;;;;2100368;28;20092;-94
2022/02/12 02:20:46;;;;;;;6.47;2.90;;;1.20;92.10;;;;;;2097796;28;20274;-95
2022/02/12 02:22:06;;;;;;;4.80;2.25;;;1.20;92.10;;;;;;2100901;28;20067;-96
2022/02/12 02:23:26;;;;;;;7.00;2.92;;;1.20;92.10;;;;;;2108516;27;20190;-96
2022/02/12 02:24:45;;;;;;;8.88;2.80;;;1.20;92.10;;;;;;2092259;28;20045;-95
2022/02/12 02:26:05;;;;;;;5.97;2.45;;;1.20;92.10;;;;;;2103330;28;20067;-95
2022/02/12 02:27:28;;;;;;;6.15;2.42;;;1.20;92.10;;;;;;2104232;28;20053;-96
2022/02/12 02:28:48;;;;;;;5.03;2.15;;;1.20;92.10;;;;;;2100500;28;20044;-96
2022/02/12 02:30:19;;;;;;;6.00;2.47;;;1.20;92.10;;;;;;2097254;28;20481;-95
2022/02/12 02:31:39;;;;;;;5.47;2.53;;;1.20;92.20;;;;;;2106575;28;20142;-96
2022/02/12 02:32:58;;;;;;;7.60;2.63;;;1.20;92.20;;;;;;2102798;28;20036;-96
2022/02/12 02:34:18;;;;;;;8.45;2.70;;;1.10;92.10;;;;;;2096927;28;20036;-96
2022/02/12 02:35:37;;;;;;;5.63;2.22;;;1.20;92.20;;;;;;2098652;28;20532;-96
2022/02/12 02:36:56;;;;;;;5.22;2.15;;;1.20;92.20;;;;;;2096676;28;20040;-96
2022/02/12 02:38:17;;;;;;;5.93;2.38;;;1.10;92.20;;;;;;2099180;28;20048;-95
2022/02/12 02:39:36;;;;;;;;;;;1.20;92.20;;;;;;2099118;28;20040;-95
2022/02/12 02:40:56;;;;;;;5.65;2.40;;;1.10;92.20;;;;;;2102471;28;19912;-96
2022/02/12 02:42:17;;;;;;;5.57;2.33;;;1.10;92.20;;;;;;2113821;27;20035;-95
2022/02/12 02:43:37;;;;;;;6.38;2.58;;;1.10;92.20;;;;;;2109529;27;20028;-95
2022/02/12 02:44:57;;;;;;;5.70;2.22;;;1.10;92.10;;;;;;2102299;28;20028;-95
2022/02/12 02:46:18;;;;;;;6.18;2.40;;;1.20;92.20;;;;;;2095763;28;20122;-95
2022/02/12 02:47:40;;;;;;;6.05;2.30;;;1.20;92.20;;;;;;2109638;28;20048;-95
2022/02/12 02:48:59;;;;;;;6.60;2.20;;;1.10;92.20;;;;;;2094337;28;20045;-96
2022/02/12 02:56:53;;;;;;;5.40;2.42;;;1.10;92.20;;;;;;2112186;28;20035;-96
2022/02/12 02:58:12;;;;;;;6.65;2.50;;;1.10;92.20;;;;;;2094602;28;20060;-96
2022/02/12 02:59:32;;;;;;;5.05;2.20;;;1.10;92.30;;;;;;2103923;28;20058;-96
2022/02/12 03:00:51;;;;;;;5.80;2.53;;;1.10;92.30;;;;;;2099011;28;20044;-96
2022/02/12 03:02:10;;;;;;;7.00;2.40;;;1.00;92.30;;;;;;2100084;28;20033;-96
2022/02/12 03:03:30;;;;;;;5.00;2.35;;;1.00;92.30;;;;;;2105199;28;20044;-96
2022/02/12 03:04:50;;;;;;;7.18;2.72;;;1.00;92.40;;;;;;2099977;28;20036;-96
2022/02/12 03:06:11;;;;;;;6.63;2.42;;;1.10;92.40;;;;;;2097738;28;20040;-96
2022/02/12 03:07:31;;;;;;;6.38;2.47;;;1.00;92.40;;;;;;2111203;28;20040;-96
2022/02/12 03:08:50;;;;;;;5.97;2.65;;;1.00;92.40;;;;;;2104520;28;20040;-96
2022/02/12 03:10:09;;;;;;;6.28;2.50;;;1.00;92.40;;;;;;2101502;28;20025;-96
2022/02/12 03:11:29;;;;;;;7.70;2.70;;;1.00;92.40;;;;;;2102710;28;20040;-96
2022/02/12 03:12:48;;;;;;;5.75;2.50;;;1.00;92.40;;;;;;2104840;28;20036;-96
2022/02/12 03:14:08;;;;;;;6.55;2.30;;;1.00;92.70;;;;;;2108848;28;20155;-96
2022/02/12 03:15:27;;;;;;;7.00;2.83;;;1.00;92.50;;;;;;2112773;27;20542;-96
2022/02/12 03:16:47;;;;;;;5.07;2.40;;;1.00;92.50;;;;;;2102871;28;20044;-96
2022/02/12 03:18:06;;;;;;;5.78;2.60;;;1.00;92.50;;;;;;2094540;28;20043;-96
2022/02/12 03:19:26;;;;;;;6.85;2.55;;;1.00;92.30;;;;;;2097137;28;20032;-96
2022/02/12 03:20:45;;;;;;;5.72;2.70;;;1.00;92.50;;;;;;2096911;28;20521;-96
2022/02/12 03:22:05;;;;;;;4.80;2.00;;;1.00;92.50;;;;;;2107388;27;20051;-96
2022/02/12 03:23:25;;;;;;;;;;;1.00;92.50;;;;;;2090216;28;20108;-96
2022/02/12 03:24:44;;;;;;;5.70;2.30;;;1.00;92.50;;;;;;2089340;28;19924;-96
2022/02/12 03:26:04;;;;;;;6.03;2.55;;;1.00;92.40;;;;;;2091215;28;20495;-95
2022/02/12 03:27:23;;;;;;;4.65;2.15;;;1.00;92.40;;;;;;2086893;28;20048;-96
2022/02/12 03:28:43;;;;;;;5.15;2.47;;;1.00;92.40;;;;;;2091090;28;20033;-96
2022/02/12 03:30:04;;;;;;;6.23;2.47;;;1.00;92.40;;;;;;2089702;28;20029;-96
2022/02/12 03:31:23;;;;;;;;;;;1.00;92.40;;;;;;2099828;28;20548;-96
2022/02/12 03:32:43;;;;;;;4.45;2.22;;;1.00;92.40;;;;;;2091181;28;19920;-96
2022/02/12 03:34:02;;;;;;;4.88;2.40;;;1.00;92.40;;;;;;2088426;28;20045;-96
2022/02/12 03:35:26;;;;;;;5.30;2.45;;;0.90;92.40;;;;;;2081657;28;20053;-96
2022/02/12 03:36:46;;;;;;;5.43;2.50;;;0.90;92.40;;;;;;2097402;28;20040;-96
2022/02/12 03:38:18;;;;;;;5.18;2.42;;;0.90;92.40;;;;;;2098722;28;20055;-95
2022/02/12 03:39:38;;;;;;;4.88;2.10;;;0.90;92.50;;;;;;2104227;28;20020;-96
2022/02/12 03:41:01;;;;;;;6.28;2.67;;;0.90;92.50;;;;;;2084156;28;20041;-96
2022/02/12 03:42:20;;;;;;;5.80;2.53;;;0.90;92.50;;;;;;2097682;28;21238;-96
2022/02/12 03:43:40;;;;;;;5.55;2.40;;;0.90;92.50;;;;;;2094279;28;20037;-96
2022/02/12 03:44:59;;;;;;;6.00;2.75;;;0.90;92.50;;;;;;2085712;28;20041;-95
2022/02/12 03:46:18;;;;;;;7.05;2.97;;;0.90;92.50;;;;;;2085151;28;20132;-95
2022/02/12 03:47:37;;;;;;;5.28;2.67;;;0.90;92.50;;;;;;2089292;28;20041;-96
2022/02/12 03:48:57;;;;;;;5.85;2.60;;;0.90;92.50;;;;;;2094926;28;20089;-95
2022/02/12 03:50:16;;;;;;;5.10;2.67;;;0.90;92.60;;;;;;2096695;28;20530;-96
2022/02/12 03:51:36;;;;;;;4.63;2.60;;;0.90;92.60;;;;;;2090697;28;20041;-95
2022/02/12 03:52:55;;;;;;;4.40;2.47;;;0.90;92.60;;;;;;2084115;28;20036;-96
2022/02/12 03:54:14;;;;;;;6.82;2.78;;;0.90;92.60;;;;;;2089007;28;20092;-96
2022/02/12 03:55:37;;;;;;;5.70;2.42;;;0.90;92.60;;;;;;2081778;28;20037;-95
2022/02/12 03:56:56;;;;;;;6.05;2.60;;;0.90;92.60;;;;;;2095332;28;20032;-96
2022/02/12 03:58:18;;;;;;;4.25;2.38;;;0.90;92.70;;;;;;2090411;28;20053;-96
2022/02/12 03:59:37;;;;;;;5.60;2.33;;;0.90;92.70;;;;;;2095627;28;20036;-96
2022/02/12 04:00:56;;;;;;;6.47;2.45;;;0.90;92.70;;;;;;2098123;28;20053;-96
2022/02/12 04:02:16;;;;;;;6.68;3.13;;;0.80;92.70;;;;;;2098531;28;20036;-96
2022/02/12 04:03:35;;;;;;;5.32;2.50;;;0.90;92.70;;;;;;2100001;28;20032;-96
2022/02/12 04:04:54;;;;;;;4.95;2.42;;;0.90;92.70;;;;;;2095634;28;20044;-96
2022/02/12 04:06:14;;;;;;;6.57;2.70;;;0.90;92.70;;;;;;2089200;28;20041;-96
2022/02/12 04:07:37;;;;;;;5.93;2.30;;;0.90;92.70;;;;;;2091809;28;20029;-96
2022/02/12 04:08:56;;;;;;;5.25;2.50;;;0.90;92.70;;;;;;2096721;28;20044;-96
2022/02/12 04:10:17;;;;;;;5.00;2.63;;;0.90;92.70;;;;;;2097607;28;20044;-96
2022/02/12 04:11:36;;;;;;;7.07;2.88;;;0.80;93.00;;;;;;2096037;28;20524;-95
2022/02/12 04:12:56;;;;;;;5.80;2.65;;;0.90;92.80;;;;;;2093346;28;20037;-95
2022/02/12 04:14:15;;;;;;;7.03;2.72;;;0.80;92.70;;;;;;2096727;28;20044;-95
2022/02/12 04:15:35;;;;;;;6.57;2.60;;;0.90;92.80;;;;;;2091933;28;20040;-95
2022/02/12 04:16:54;;;;;;;7.57;2.20;;;0.80;92.70;;;;;;2092732;28;20044;-95
2022/02/12 04:18:14;;;;;;;6.28;2.47;;;0.90;92.80;;;;;;2085169;28;20041;-95
2022/02/12 04:19:34;;;;;;;5.68;2.63;;;0.90;92.80;;;;;;2091936;28;21197;-94
2022/02/12 04:20:53;;;;;;;5.05;2.60;;;0.80;92.70;;;;;;2098989;28;20505;-94
2022/02/12 04:22:13;;;;;;;6.47;2.80;;;0.90;92.80;;;;;;2093533;28;20045;-95
2022/02/12 04:23:32;;;;;;;5.72;2.50;;;0.90;92.80;;;;;;2101382;28;20613;-94
2022/02/12 04:24:51;;;;;;;7.10;2.60;;;0.90;92.80;;;;;;2090352;28;20124;-95
2022/02/12 04:26:10;;;;;;;5.78;2.72;;;0.80;92.80;;;;;;2104271;28;20040;-94
2022/02/12 04:27:29;;;;;;;7.85;2.95;;;0.90;92.80;;;;;;2096572;28;20045;-94
2022/02/12 04:28:49;;;;;;;5.53;2.40;;;0.90;92.80;;;;;;2099060;28;20068;-95
2022/02/12 04:30:11;;;;;;;7.05;2.70;;;0.90;92.80;;;;;;2101186;28;20040;-95
2022/02/12 04:31:30;;;;;;;5.50;2.42;;;0.90;92.80;;;;;;2106869;28;20039;-95
2022/02/12 04:32:49;;;;;;;7.22;2.75;;;0.80;92.80;;;;;;2102513;28;20052;-94
2022/02/12 04:34:09;;;;;;;5.65;2.30;;;0.90;92.80;;;;;;2102853;28;20071;-95
2022/02/12 04:35:28;;;;;;;4.93;2.38;;;0.90;92.80;;;;;;2108436;27;20466;-95
2022/02/12 04:36:48;;;;;;;4.40;2.35;;;0.90;92.80;;;;;;2109662;28;20031;-95
2022/02/12 04:38:07;;;;;;;6.80;2.65;;;0.80;92.80;;;;;;2102082;28;20040;-95
2022/02/12 04:39:26;;;;;;;5.60;2.35;;;0.80;92.80;;;;;;2103774;28;20456;-95
2022/02/12 04:40:45;;;;;;;5.68;2.90;;;0.80;92.80;;;;;;2094371;28;20044;-95
2022/02/12 04:42:11;;;;;;;4.40;1.98;;;0.90;92.90;;;;;;2105594;27;20448;-96
2022/02/12 04:43:30;;;;;;;5.28;2.30;;;0.80;92.80;;;;;;2108392;27;20028;-94
2022/02/12 04:44:52;;;;;;;4.72;2.30;;;0.90;92.80;;;;;;2097871;28;20510;-94
2022/02/12 04:46:11;;;;;;;6.90;2.30;;;0.90;92.80;;;;;;2106490;27;20039;-95
2022/02/12 04:47:30;;;;;;;7.70;2.42;;;0.80;92.80;;;;;;2104423;28;20036;-95
2022/02/12 04:48:50;;;;;;;6.05;2.60;;;0.80;92.90;;;;;;2099833;28;20779;-95
2022/02/12 04:50:10;;;;;;;6.18;2.60;;;0.80;92.90;;;;;;2093798;28;20041;-95
2022/02/12 04:51:29;;;;;;;5.78;2.30;;;0.80;92.90;;;;;;2103661;28;20111;-94
2022/02/12 04:52:49;;;;;;;7.15;2.25;;;0.80;92.90;;;;;;2101651;28;20048;-95
2022/02/12 04:54:08;;;;;;;6.85;2.28;;;0.80;92.90;;;;;;2108177;27;20035;-93
2022/02/12 04:55:28;;;;;;;5.90;2.40;;;0.80;92.90;;;;;;2094805;28;20032;-95
2022/02/12 04:56:47;;;;;;;5.28;2.22;;;0.80;92.90;;;;;;2094903;28;20032;-95
2022/02/12 04:58:06;;;;;;;5.80;2.20;;;0.80;92.90;;;;;;2090747;28;20434;-95
2022/02/12 04:59:26;;;;;;;4.90;2.28;;;0.80;92.80;;;;;;2096139;28;20029;-95
2022/02/12 05:00:45;;;;;;;6.40;3.20;;;0.80;92.90;;;;;;2105606;27;20031;-95
2022/02/12 05:02:05;;;;;;;5.95;2.42;;;0.80;92.90;;;;;;2097760;28;20064;-94
2022/02/12 05:03:24;;;;;;;4.55;2.13;;;0.80;92.90;;;;;;2104479;28;20044;-96
2022/02/12 05:04:43;;;;;;;6.03;2.75;;;0.90;92.90;;;;;;2106676;28;20035;-96
2022/02/12 05:06:03;;;;;;;6.13;2.55;;;0.80;92.90;;;;;;2108184;28;20048;-95
2022/02/12 05:07:23;;;;;;;4.78;2.20;;;0.80;92.90;;;;;;2100931;28;20017;-95
2022/02/12 05:08:43;;;;;;;6.45;2.72;;;0.90;92.90;;;;;;2092723;28;20040;-94
2022/02/12 05:10:03;;;;;;;6.28;2.42;;;0.90;92.90;;;;;;2105033;28;20247;-95
2022/02/12 05:11:22;;;;;;;6.60;2.38;;;0.80;92.90;;;;;;2104609;28;20052;-95
2022/02/12 05:12:41;;;;;;;5.18;2.10;;;0.80;92.90;;;;;;2114651;27;20097;-96
2022/02/12 05:14:00;;;;;;;5.45;2.40;;;0.80;92.90;;;;;;2107931;28;20024;-96
2022/02/12 05:15:20;;;;;;;5.40;2.30;;;0.80;92.90;;;;;;2090905;28;20041;-96
2022/02/12 05:16:39;;;;;;;6.00;2.22;;;0.80;92.90;;;;;;2098753;28;20032;-95
2022/02/12 05:17:59;;;;;;;6.35;2.38;;;0.80;92.90;;;;;;2106853;28;20040;-95
2022/02/12 05:19:18;;;;;;;5.15;2.40;;;0.90;92.90;;;;;;2103812;28;20494;-96
2022/02/12 05:20:37;;;;;;;5.30;2.38;;;0.90;92.90;;;;;;2100698;28;20066;-96
2022/02/12 05:21:56;;;;;;;5.70;2.38;;;0.90;92.90;;;;;;2088499;28;20506;-95
2022/02/12 05:23:16;;;;;;;6.00;2.42;;;0.90;92.90;;;;;;2097745;28;20429;-95
2022/02/12 05:24:36;;;;;;;6.65;2.00;;;0.90;92.80;;;;;;2096533;28;20256;-96
2022/02/12 05:25:55;;;;;;;4.60;2.08;;;0.80;92.80;;;;;;2106879;27;20024;-96
2022/02/12 05:27:15;;;;;;;4.50;2.17;;;0.90;92.80;;;;;;2104052;28;20040;-96
2022/02/12 05:28:34;;;;;;;5.47;2.40;;;0.90;92.80;;;;;;2100881;28;20529;-96
2022/02/12 05:29:53;;;;;;;5.72;2.35;;;0.90;92.80;;;;;;2090619;28;20045;-96
2022/02/12 05:31:13;;;;;;;6.60;2.22;;;0.90;92.80;;;;;;2090121;28;20556;-96
2022/02/12 05:32:32;;;;;;;4.85;1.92;;;0.90;92.80;;;;;;2107121;27;20035;-95
2022/02/12 05:33:51;;;;;;;5.07;2.20;;;0.80;92.80;;;;;;2096579;28;20484;-95
2022/02/12 05:35:10;;;;;;;5.60;2.13;;;0.80;92.80;;;;;;2098985;28;20049;-95
2022/02/12 05:36:30;;;;;;;5.68;2.30;;;0.80;92.80;;;;;;2099473;28;20044;-96
2022/02/12 05:37:49;;;;;;;6.78;2.40;;;0.80;92.80;;;;;;2098657;28;20040;-95
2022/02/12 05:39:09;;;;;;;6.05;2.20;;;0.80;92.90;;;;;;2104233;28;20122;-95
2022/02/12 05:40:29;;;;;;;5.82;2.42;;;0.80;92.90;;;;;;2102262;28;20040;-95
2022/02/12 05:41:48;;;;;;;5.07;2.13;;;0.80;92.90;;;;;;2101513;28;20403;-95
2022/02/12 05:43:07;;;;;;;6.15;1.95;;;0.70;92.90;;;;;;2102815;28;20130;-96
2022/02/12 05:44:26;;;;;;;5.82;2.28;;;0.70;92.90;;;;;;2099224;28;20043;-96
2022/02/12 05:45:46;;;;;;;6.28;2.20;;;0.70;92.90;;;;;;2107097;27;20039;-95
2022/02/12 05:47:05;;;;;;;5.32;2.42;;;0.70;92.90;;;;;;2103616;28;20039;-95
2022/02/12 05:48:24;;;;;;;5.70;2.08;;;0.70;92.90;;;;;;2094838;28;20040;-95
2022/02/12 05:49:43;;;;;;;4.47;2.00;;;0.70;92.90;;;;;;2098424;28;20572;-94
2022/02/12 05:51:04;;;;;;;4.72;2.40;;;0.70;93.00;;;;;;2110394;27;20047;-93
2022/02/12 05:52:23;;;;;;;5.65;2.10;;;0.70;93.00;;;;;;2103171;28;20494;-94
2022/02/12 05:53:42;;;;;;;5.63;2.33;;;0.70;93.00;;;;;;2106461;27;20047;-94
2022/02/12 05:55:02;;;;;;;7.03;2.40;;;0.70;92.90;;;;;;2094492;28;20490;-95
2022/02/12 05:56:21;;;;;;;5.47;2.65;;;0.70;92.90;;;;;;2095489;28;20103;-94
2022/02/12 05:57:41;;;;;;;5.10;2.20;;;0.70;92.90;;;;;;2101917;28;20036;-94
2022/02/12 05:59:03;;;;;;;6.13;2.17;;;0.70;92.90;;;;;;2104720;28;20107;-95
2022/02/12 06:00:22;;;;;;;5.18;2.05;;;0.70;92.90;;;;;;2109508;27;20524;-95
2022/02/12 06:01:42;;;;;;;5.03;2.20;;;0.70;92.90;;;;;;2098601;28;20044;-94
2022/02/12 06:03:02;;;;;;;5.97;2.20;;;0.80;92.80;;;;;;2106525;27;20035;-95
2022/02/12 06:04:21;;;;;;;8.65;2.60;;;0.80;92.90;;;;;;2105023;28;20094;-94
2022/02/12 06:05:41;;;;;;;7.20;2.70;;;0.80;92.90;;;;;;2106838;28;20025;-94
2022/02/12 06:07:01;;;;;;;4.78;2.22;;;0.80;92.90;;;;;;2097781;28;20032;-93
2022/02/12 06:08:21;;;;;;;4.57;2.33;;;0.70;92.80;;;;;;2105169;28;20127;-95
2022/02/12 06:09:40;;;;;;;5.72;2.30;;;0.70;92.80;;;;;;2106356;28;20063;-93
2022/02/12 06:11:01;;;;;;;6.10;2.35;;;0.70;92.90;;;;;;2105322;28;20028;-92
2022/02/12 06:12:21;;;;;;;5.03;2.28;;;0.80;92.90;;;;;;2106624;28;20048;-94
2022/02/12 06:13:40;;;;;;;5.88;2.00;;;0.70;92.90;;;;;;2104434;28;20032;-94
2022/02/12 06:14:59;;;;;;;5.35;2.15;;;0.70;92.90;;;;;;2104185;28;20044;-94
2022/02/12 06:16:20;;;;;;;5.93;2.33;;;0.70;92.90;;;;;;2108554;28;20044;-93
2022/02/12 06:17:40;;;;;;;4.50;1.92;;;0.70;92.90;;;;;;2117994;27;20028;-91
2022/02/12 06:18:59;;;;;;;6.18;2.10;;;0.70;92.90;;;;;;2101051;28;20040;-92
2022/02/12 06:20:19;;;;;;;5.10;2.38;;;0.70;92.90;;;;;;2104919;28;20103;-93
2022/02/12 06:21:38;;;;;;;6.03;2.50;;;0.70;93.00;;;;;;2109847;27;20028;-93
2022/02/12 06:22:58;;;;;;;6.13;2.38;;;0.70;93.00;;;;;;2104920;28;20056;-94
2022/02/12 06:24:17;;;;;;;5.88;2.67;;;0.70;93.00;;;;;;2109273;27;20047;-94
2022/02/12 06:25:37;;;;;;;6.53;2.45;;;0.70;93.00;;;;;;2109221;28;20043;-93
2022/02/12 06:26:57;;;;;;;6.55;2.55;;;0.70;93.00;;;;;;2108937;27;20118;-93
2022/02/12 06:28:16;;;;;;;;;;;0.70;93.00;;;;;;2105809;28;20058;-92
2022/02/12 06:29:36;;;;;;;5.15;2.05;;;0.70;93.00;;;;;;2110931;28;19971;-92
2022/02/12 06:30:55;;;;;;;5.55;2.30;;;0.70;93.00;;;;;;2110269;28;20032;-91
2022/02/12 06:32:14;;;;;;;6.18;2.72;;;0.70;92.90;;;;;;2112973;28;20052;-93
2022/02/12 06:33:34;;;;;;;4.95;2.25;;;0.70;92.90;;;;;;2108149;28;20060;-93
2022/02/12 06:34:58;;;;;;;5.50;2.35;;;0.60;92.90;;;;;;2110479;28;20028;-93
2022/02/12 06:36:17;;;;;;;6.82;2.45;;;0.70;92.90;;;;;;2121093;27;20047;-94
2022/02/12 06:37:36;;;;;;;9.98;3.00;;;0.70;92.90;;;;;;2115821;27;20056;-92
2022/02/12 06:38:56;;;;;;;5.53;2.60;;;0.70;93.20;;;;;;2097801;28;20029;-93
2022/02/12 06:40:15;;;;;;;4.82;2.33;;;0.70;93.00;;;;;;2098933;28;20044;-92
2022/02/12 06:41:35;;;;;;;5.43;2.28;;;0.60;93.00;;;;;;2101502;28;20549;-94
2022/02/12 06:42:55;;;;;;;5.15;2.80;;;0.60;93.00;;;;;;2104195;28;20087;-94
2022/02/12 06:44:14;;;;;;;5.65;2.70;;;0.60;93.00;;;;;;2116380;27;20040;-94
2022/02/12 06:45:34;;;;;;;6.75;2.60;;;0.60;93.00;;;;;;2106567;28;20112;-92
2022/02/12 06:46:53;;;;;;;6.05;2.38;;;0.60;93.00;;;;;;2105593;28;20040;-93
2022/02/12 06:48:13;;;;;;;7.53;2.70;;;0.60;93.00;;;;;;2113599;28;20039;-93
2022/02/12 06:49:33;;;;;;;5.30;2.42;;;0.60;93.00;;;;;;2108776;28;20036;-95
2022/02/12 06:50:55;;;;;;;8.20;3.10;;;0.60;93.00;;;;;;2116608;28;20024;-94
2022/02/12 06:52:15;;;;;;;7.10;3.22;;;0.60;93.00;;;;;;2111106;28;20209;-94
2022/02/12 06:53:34;;;;;;;6.30;3.05;;;0.60;93.00;;;;;;2112785;28;20099;-93
2022/02/12 06:54:54;;;;;;;8.02;2.97;;;0.60;93.10;;;;;;2102577;28;20048;-93
2022/02/12 06:56:13;;;;;;;6.90;3.38;;;0.60;93.10;;;;;;2102404;28;20040;-93
2022/02/12 06:57:33;;;;;;;6.50;3.20;;;0.60;93.10;;;;;;2103151;28;20033;-94
2022/02/12 06:58:52;;;;;;;7.95;3.78;;;0.60;93.10;;;;;;2102288;28;20434;-93
2022/02/12 07:00:12;;;;;;;5.68;3.38;;;0.60;93.10;;;;;;2107600;27;20051;-94
2022/02/12 07:01:32;;;;;;;6.22;3.30;;;0.60;93.10;;;;;;2100488;28;20044;-93
2022/02/12 07:02:51;;;;;;;5.85;2.90;;;0.60;93.10;;;;;;2102394;28;20044;-93
2022/02/12 07:04:11;;;;;;;6.97;3.05;;;0.60;93.10;;;;;;2108329;28;20048;-94
2022/02/12 07:05:30;;;;;;;5.90;2.80;;;0.60;93.10;;;;;;2105249;28;20040;-94
2022/02/12 07:06:49;;;;;;;6.70;2.60;;;0.60;93.10;;;;;;2107886;28;20036;-94
2022/02/12 07:08:09;;;;;;;7.32;3.03;;;0.60;93.10;;;;;;2116187;28;20063;-94